Time;durP1;ratioP1;P1;durP2;ratioP2;P2;SDS_P1;SDS_P2;PMS_P1;PMS_P2;Temp;Humidity;BMP_temperature;BMP_pressure;BME280_temperature;BME280_humidity;BME280_pressure;Samples;Min_cycle;Max_cycle;Signal;HPM_P1;HPM_P2
2022/04/12 00:00:43;;;;;;;7.40;2.83;;;13.60;76.80;;;;;;7371040;19;107331;-96
2022/04/12 00:03:18;;;;;;;4.40;2.42;;;13.60;76.80;;;;;;7376159;19;110837;-96
2022/04/12 00:05:48;;;;;;;8.55;2.75;;;13.60;77.10;;;;;;7372411;19;108530;-96
2022/04/12 00:08:21;;;;;;;7.25;2.78;;;13.50;76.90;;;;;;7374768;19;109479;-95
2022/04/12 00:10:52;;;;;;;5.72;3.00;;;13.50;77.00;;;;;;7374078;19;111110;-96
2022/04/12 00:13:20;;;;;;;3.55;2.80;;;13.50;77.10;;;;;;7376624;19;109084;-95
2022/04/12 00:15:50;;;;;;;4.90;2.90;;;13.40;77.20;;;;;;7376925;19;107326;-96
2022/04/12 00:21:14;;;;;;;3.38;2.42;;;13.30;77.30;;;;;;7378759;19;108582;-96
2022/04/12 00:23:44;;;;;;;5.47;2.95;;;13.30;77.50;;;;;;7381282;19;109419;-95
2022/04/12 00:26:12;;;;;;;3.78;2.60;;;13.30;77.70;;;;;;7379781;19;110026;-96
2022/04/12 00:28:41;;;;;;;6.93;2.85;;;13.20;77.70;;;;;;7377354;19;107397;-96
2022/04/12 00:31:09;;;;;;;10.32;2.92;;;13.20;77.80;;;;;;7372977;19;110793;-95
2022/04/12 00:33:37;;;;;;;11.15;2.80;;;13.20;77.90;;;;;;7370758;19;108368;-95
2022/04/12 00:36:06;;;;;;;9.38;2.97;;;13.10;77.90;;;;;;7369853;19;109282;-96
2022/04/12 00:38:39;;;;;;;4.63;2.97;;;13.10;78.00;;;;;;7371753;19;107823;-94
2022/04/12 00:41:08;;;;;;;6.90;2.90;;;13.10;78.10;;;;;;7379423;19;108192;-96
2022/04/12 00:43:45;;;;;;;6.50;2.92;;;13.10;78.20;;;;;;7375513;19;108551;-96
2022/04/12 00:46:12;;;;;;;7.43;3.05;;;13.00;78.30;;;;;;7373046;19;108353;-95
2022/04/12 00:48:39;;;;;;;4.45;2.80;;;13.00;78.60;;;;;;7376124;19;107459;-96
2022/04/12 00:51:06;;;;;;;9.02;3.05;;;13.00;78.70;;;;;;7378917;19;110098;-96
2022/04/12 00:53:43;;;;;;;10.65;3.25;;;12.90;78.70;;;;;;7377082;19;108376;-95
2022/04/12 00:56:11;;;;;;;6.20;3.53;;;12.90;78.90;;;;;;7362940;19;108958;-90
2022/04/12 00:58:49;;;;;;;7.88;3.00;;;12.80;78.90;;;;;;7375577;19;107341;-96
2022/04/12 01:01:18;;;;;;;5.55;2.95;;;12.80;79.10;;;;;;7370331;19;111704;-96
2022/04/12 01:03:57;;;;;;;6.93;3.13;;;12.80;79.30;;;;;;7381821;19;107810;-95
2022/04/12 01:06:28;;;;;;;7.18;2.58;;;12.70;79.30;;;;;;7371213;19;108257;-95
2022/04/12 01:08:57;;;;;;;4.15;2.97;;;12.70;79.40;;;;;;7370690;19;109470;-95
2022/04/12 01:11:26;;;;;;;4.55;2.75;;;12.70;79.50;;;;;;7371573;19;108982;-95
2022/04/12 01:13:56;;;;;;;5.45;2.78;;;12.60;79.60;;;;;;7371924;19;109389;-96
2022/04/12 01:16:23;;;;;;;3.60;2.80;;;12.60;79.60;;;;;;7372167;19;107426;-92
2022/04/12 01:18:53;;;;;;;4.20;3.17;;;12.60;79.80;;;;;;7375231;19;110044;-96
2022/04/12 01:21:23;;;;;;;4.43;2.42;;;12.60;79.90;;;;;;7375500;19;109348;-95
2022/04/12 01:24:05;;;;;;;4.53;2.63;;;12.50;79.90;;;;;;7381344;19;107304;-95
2022/04/12 01:26:38;;;;;;;8.65;3.08;;;12.50;80.00;;;;;;7376293;19;108491;-96
2022/04/12 01:29:06;;;;;;;9.57;2.60;;;12.50;80.10;;;;;;7373182;19;107652;-95
2022/04/12 01:31:36;;;;;;;6.20;2.88;;;12.50;80.10;;;;;;7367556;19;108501;-96
2022/04/12 01:34:03;;;;;;;7.50;3.10;;;12.40;80.20;;;;;;7368607;19;111433;-95
2022/04/12 01:36:30;;;;;;;5.68;2.78;;;12.50;80.50;;;;;;7367973;19;107443;-95
2022/04/12 01:39:00;;;;;;;10.85;2.95;;;12.40;80.60;;;;;;7365883;19;110054;-96
2022/04/12 01:41:27;;;;;;;6.20;3.00;;;12.40;80.70;;;;;;7359933;19;109217;-95
2022/04/12 01:43:54;;;;;;;6.88;2.58;;;12.40;80.80;;;;;;7355351;19;107575;-95
2022/04/12 01:46:22;;;;;;;6.80;3.10;;;12.40;80.80;;;;;;7361199;19;110885;-95
2022/04/12 01:48:49;;;;;;;5.80;3.08;;;12.40;81.00;;;;;;7361713;19;108322;-95
2022/04/12 01:51:17;;;;;;;5.97;2.63;;;12.30;81.10;;;;;;7363443;19;110177;-96
2022/04/12 01:53:45;;;;;;;8.30;3.10;;;12.30;81.10;;;;;;7370114;19;108242;-96
2022/04/12 01:56:20;;;;;;;6.57;3.00;;;12.30;81.20;;;;;;7360888;19;107265;-94
2022/04/12 02:04:44;;;;;;;7.93;2.70;;;12.30;81.40;;;;;;7377113;19;107740;-96
2022/04/12 02:09:49;;;;;;;4.43;2.70;;;12.20;81.50;;;;;;7327139;19;108643;-95
2022/04/12 02:23:40;;;;;;;6.55;2.88;;;12.10;82.00;;;;;;7381184;19;107701;-96
2022/04/12 02:26:10;;;;;;;5.07;2.60;;;12.00;82.00;;;;;;7379199;19;107219;-96
2022/04/12 02:28:37;;;;;;;5.07;3.00;;;12.00;82.10;;;;;;7381025;19;107925;-94
2022/04/12 02:33:49;;;;;;;5.65;2.90;;;11.90;82.60;;;;;;7382790;19;107086;-95
2022/04/12 02:36:18;;;;;;;5.47;2.63;;;11.90;82.60;;;;;;7377734;19;109324;-94
2022/04/12 02:38:45;;;;;;;5.72;3.40;;;11.90;82.70;;;;;;7378654;19;107256;-96
2022/04/12 02:41:15;;;;;;;5.50;3.50;;;11.90;82.80;;;;;;7379164;19;108063;-96
2022/04/12 02:43:42;;;;;;;9.05;2.78;;;11.90;82.90;;;;;;7379741;19;109387;-96
2022/04/12 02:46:10;;;;;;;4.13;2.63;;;11.90;82.90;;;;;;7374616;19;108157;-96
2022/04/12 02:48:37;;;;;;;6.28;2.70;;;11.80;83.00;;;;;;7380951;19;108517;-95
2022/04/12 02:51:07;;;;;;;4.60;2.55;;;11.80;83.10;;;;;;7380109;19;112128;-96
2022/04/12 02:53:41;;;;;;;9.13;3.38;;;11.80;83.00;;;;;;7382765;19;109502;-96
2022/04/12 02:56:14;;;;;;;3.67;2.55;;;11.80;83.20;;;;;;7386373;19;111485;-96
2022/04/12 03:04:09;;;;;;;6.00;2.80;;;11.80;83.10;;;;;;7373480;19;108142;-96
2022/04/12 03:06:50;;;;;;;6.60;2.83;;;11.70;83.20;;;;;;7378368;19;107402;-96
2022/04/12 03:40:47;;;;;;;10.15;3.63;;;11.50;85.70;;;;;;7368828;19;107853;-95
2022/04/12 05:10:31;;;;;;;9.03;4.43;;;10.10;90.70;;;;;;7330664;19;134816;-96
2022/04/12 05:13:03;;;;;;;11.13;4.25;;;10.20;90.60;;;;;;7378426;19;107946;-96
2022/04/12 05:24:09;;;;;;;6.32;3.10;;;10.30;90.50;;;;;;7356605;19;108235;-94
2022/04/12 05:32:36;;;;;;;13.75;3.38;;;10.40;90.80;;;;;;7338445;19;108992;-94
2022/04/12 05:35:04;;;;;;;10.50;3.25;;;10.50;90.80;;;;;;7341422;19;108927;-93
2022/04/12 05:37:31;;;;;;;14.35;3.40;;;10.50;90.80;;;;;;7341183;19;107540;-95
2022/04/12 05:40:03;;;;;;;12.25;3.08;;;10.50;90.70;;;;;;7343066;19;108683;-93
2022/04/12 05:42:30;;;;;;;9.10;2.90;;;10.60;90.90;;;;;;7340404;19;109752;-94
2022/04/12 05:44:57;;;;;;;4.82;2.70;;;10.60;90.90;;;;;;7343892;19;109275;-93
2022/04/12 05:47:24;;;;;;;5.63;2.38;;;10.60;90.90;;;;;;7346508;19;109486;-96
2022/04/12 05:49:51;;;;;;;5.00;2.50;;;10.70;90.90;;;;;;7347552;19;107921;-94
2022/04/12 05:52:18;;;;;;;4.20;2.78;;;10.70;91.00;;;;;;7344828;19;109976;-96
2022/04/12 05:54:45;;;;;;;5.75;2.80;;;10.70;90.90;;;;;;7344934;19;108763;-94
2022/04/12 05:57:12;;;;;;;;;;;10.70;91.00;;;;;;7341572;19;111046;-95
2022/04/12 05:59:45;;;;;;;8.13;2.80;;;10.80;91.00;;;;;;7354774;19;109137;-95
2022/04/12 06:02:20;;;;;;;9.80;2.55;;;10.80;91.00;;;;;;7354860;19;107970;-94
2022/04/12 06:04:47;;;;;;;5.10;2.40;;;10.80;91.20;;;;;;7347340;19;107998;-93
2022/04/12 06:07:14;;;;;;;7.65;2.63;;;10.90;91.10;;;;;;7353989;19;108704;-94
2022/04/12 06:09:41;;;;;;;8.05;2.45;;;10.90;91.10;;;;;;7345979;19;107095;-95
2022/04/12 06:12:09;;;;;;;7.18;2.42;;;11.00;91.20;;;;;;7343433;19;108205;-94
2022/04/12 06:14:35;;;;;;;6.10;2.53;;;11.00;91.30;;;;;;7343573;19;110015;-96
2022/04/12 06:17:03;;;;;;;6.50;2.33;;;11.10;91.30;;;;;;7346796;19;107953;-95
2022/04/12 06:19:30;;;;;;;6.82;2.70;;;11.20;91.30;;;;;;7340562;19;108073;-94
2022/04/12 06:21:57;;;;;;;4.57;2.53;;;11.30;91.40;;;;;;7341418;19;108713;-96
2022/04/12 06:24:24;;;;;;;15.35;2.90;;;11.40;91.30;;;;;;7342797;19;110202;-95
2022/04/12 06:26:51;;;;;;;13.00;2.90;;;11.50;91.30;;;;;;7342246;19;108242;-95
2022/04/12 06:29:18;;;;;;;7.60;2.60;;;11.50;91.30;;;;;;7353792;19;111123;-95
2022/04/12 06:31:45;;;;;;;4.88;2.45;;;11.60;91.60;;;;;;7337927;19;107094;-95
2022/04/12 06:34:12;;;;;;;8.82;2.58;;;11.70;91.30;;;;;;7342432;19;107987;-95
2022/04/12 06:36:39;;;;;;;6.18;2.85;;;11.80;91.40;;;;;;7342295;19;107716;-94
2022/04/12 06:39:07;;;;;;;6.13;2.67;;;11.90;91.40;;;;;;7339307;19;106982;-93
2022/04/12 06:41:34;;;;;;;5.95;2.65;;;11.90;91.50;;;;;;7339387;19;108808;-93
2022/04/12 06:44:01;;;;;;;6.82;3.03;;;12.00;91.50;;;;;;7339862;19;111441;-93
2022/04/12 06:46:28;;;;;;;13.70;2.58;;;12.20;91.50;;;;;;7343392;19;110550;-92
2022/04/12 06:48:55;;;;;;;5.68;2.90;;;12.30;91.60;;;;;;7345749;19;111646;-92
2022/04/12 06:51:22;;;;;;;8.82;2.55;;;12.40;91.60;;;;;;7349347;19;107486;-92
2022/04/12 06:53:50;;;;;;;5.63;2.42;;;12.50;91.60;;;;;;7344027;19;111676;-91
2022/04/12 06:56:20;;;;;;;4.50;2.90;;;12.60;91.60;;;;;;7344304;19;108271;-90
2022/04/12 06:58:48;;;;;;;6.85;3.25;;;12.70;91.60;;;;;;7345584;19;108596;-92
2022/04/12 07:01:15;;;;;;;4.40;2.58;;;12.80;91.60;;;;;;7343208;19;111513;-93
2022/04/12 07:03:44;;;;;;;4.85;2.50;;;12.90;91.80;;;;;;7344508;19;107632;-91
2022/04/12 07:06:11;;;;;;;6.82;2.70;;;13.00;91.50;;;;;;7343514;19;109530;-93
2022/04/12 07:08:41;;;;;;;5.72;2.83;;;13.10;91.50;;;;;;7343503;19;111663;-92
2022/04/12 07:11:08;;;;;;;3.75;2.53;;;13.20;91.60;;;;;;7343855;19;107574;-93
2022/04/12 07:13:36;;;;;;;6.57;2.53;;;13.30;91.80;;;;;;7349112;19;108181;-91
2022/04/12 07:16:03;;;;;;;6.22;2.30;;;13.40;91.90;;;;;;7342783;19;108196;-91
2022/04/12 07:18:30;;;;;;;6.32;2.35;;;13.50;91.90;;;;;;7344284;19;107975;-90
2022/04/12 07:20:58;;;;;;;7.47;2.40;;;13.70;92.00;;;;;;7343706;19;108995;-91
2022/04/12 07:23:25;;;;;;;5.63;2.30;;;13.80;91.90;;;;;;7342605;19;110856;-91
2022/04/12 07:25:53;;;;;;;5.65;2.38;;;13.90;91.90;;;;;;7342548;19;110444;-90
2022/04/12 07:28:20;;;;;;;5.65;2.40;;;14.00;91.90;;;;;;7344203;19;108658;-91
2022/04/12 07:30:47;;;;;;;4.65;2.20;;;14.10;91.80;;;;;;7343755;19;108723;-91
2022/04/12 07:33:19;;;;;;;7.05;2.20;;;14.20;92.00;;;;;;7340188;19;107327;-91
2022/04/12 07:35:46;;;;;;;3.92;2.13;;;14.20;91.90;;;;;;7351196;19;108962;-90
2022/04/12 07:38:13;;;;;;;6.43;2.42;;;14.30;91.70;;;;;;7340070;19;108574;-91
2022/04/12 07:40:40;;;;;;;3.45;2.38;;;14.40;91.80;;;;;;7342529;19;111909;-92
2022/04/12 07:43:07;;;;;;;4.05;2.13;;;14.40;92.30;;;;;;7341532;19;111034;-93
2022/04/12 07:45:34;;;;;;;7.47;2.08;;;14.60;92.20;;;;;;7342807;19;108331;-94
2022/04/12 07:48:02;;;;;;;7.03;2.13;;;14.70;92.30;;;;;;7343170;19;107965;-92
2022/04/12 07:50:29;;;;;;;3.88;2.17;;;14.80;91.90;;;;;;7344030;19;109323;-93
2022/04/12 07:52:56;;;;;;;8.68;2.17;;;14.90;91.90;;;;;;7339678;19;111562;-90
2022/04/12 07:55:23;;;;;;;5.85;1.80;;;14.90;92.00;;;;;;7339399;19;108110;-93
2022/04/12 07:57:50;;;;;;;3.80;1.95;;;15.00;92.10;;;;;;7344638;19;106847;-92
2022/04/12 08:00:17;;;;;;;3.85;1.85;;;15.10;92.00;;;;;;7340614;19;109318;-92
2022/04/12 08:02:44;;;;;;;6.82;2.47;;;15.30;91.80;;;;;;7343291;19;108212;-92
2022/04/12 08:05:11;;;;;;;3.85;1.48;;;15.40;92.20;;;;;;7340884;19;110110;-92
2022/04/12 08:07:39;;;;;;;4.47;2.00;;;15.50;91.80;;;;;;7339865;19;108674;-92
2022/04/12 08:10:07;;;;;;;4.07;1.70;;;15.60;91.70;;;;;;7341538;19;108028;-92
2022/04/12 08:12:34;;;;;;;6.28;1.90;;;15.70;91.50;;;;;;7340580;19;110443;-93
2022/04/12 08:15:02;;;;;;;4.55;1.50;;;15.80;91.50;;;;;;7341088;19;108514;-91
2022/04/12 08:17:29;;;;;;;7.85;1.73;;;15.90;91.20;;;;;;7345563;19;108461;-92
2022/04/12 08:19:56;;;;;;;6.50;1.95;;;16.00;91.00;;;;;;7342965;19;109309;-92
2022/04/12 08:22:23;;;;;;;5.78;2.13;;;16.10;91.10;;;;;;7341037;19;109572;-93
2022/04/12 08:25:11;;;;;;;3.08;1.83;;;16.20;90.90;;;;;;7342123;19;107641;-93
2022/04/12 08:27:38;;;;;;;9.38;2.00;;;16.30;91.00;;;;;;7340334;19;109139;-90
2022/04/12 08:30:07;;;;;;;2.90;1.67;;;16.40;90.80;;;;;;7339298;19;108720;-92
2022/04/12 08:32:35;;;;;;;3.63;1.95;;;16.40;90.70;;;;;;7340393;19;110465;-92
2022/04/12 08:35:04;;;;;;;3.00;1.73;;;16.50;91.00;;;;;;7340555;19;107539;-92
2022/04/12 08:37:31;;;;;;;4.35;1.40;;;16.60;90.60;;;;;;7340914;19;107442;-93
2022/04/12 08:39:59;;;;;;;4.45;1.70;;;16.70;90.50;;;;;;7346466;19;109934;-91
2022/04/12 08:42:26;;;;;;;3.85;1.45;;;16.80;90.50;;;;;;7342609;19;107116;-92
2022/04/12 08:44:53;;;;;;;3.85;1.88;;;16.90;90.90;;;;;;7343335;19;108592;-92
2022/04/12 08:47:22;;;;;;;5.03;1.80;;;17.00;90.60;;;;;;7341557;19;108891;-94
2022/04/12 08:49:49;;;;;;;5.28;1.63;;;17.10;90.80;;;;;;7342201;19;108315;-92
2022/04/12 08:52:17;;;;;;;3.50;1.65;;;17.20;90.50;;;;;;7341414;19;110920;-92
2022/04/12 08:54:45;;;;;;;3.78;1.65;;;17.20;90.50;;;;;;7341391;19;109002;-92
2022/04/12 08:57:13;;;;;;;6.50;2.05;;;17.40;90.40;;;;;;7339659;19;108465;-92
2022/04/12 08:59:41;;;;;;;6.88;3.00;;;17.40;90.30;;;;;;7340572;19;107913;-92
2022/04/12 09:02:09;;;;;;;4.10;1.63;;;17.50;89.90;;;;;;7347078;19;110868;-91
2022/04/12 09:04:37;;;;;;;4.50;1.70;;;17.50;90.20;;;;;;7342272;19;109308;-92
2022/04/12 09:07:08;;;;;;;5.00;1.52;;;17.70;90.10;;;;;;7342181;19;108891;-93
2022/04/12 09:09:38;;;;;;;6.57;1.40;;;17.80;90.10;;;;;;7337849;19;108375;-92
2022/04/12 09:12:13;;;;;;;6.20;1.70;;;17.80;90.30;;;;;;7336024;19;109573;-91
2022/04/12 09:14:46;;;;;;;5.72;1.70;;;18.00;90.30;;;;;;7335285;19;108838;-92
2022/04/12 09:17:18;;;;;;;6.88;1.55;;;18.10;90.20;;;;;;7338265;19;107619;-92
2022/04/12 09:19:48;;;;;;;6.03;1.70;;;18.20;90.20;;;;;;7338209;19;110478;-93
2022/04/12 09:22:23;;;;;;;4.55;1.45;;;18.30;90.10;;;;;;7338827;19;110250;-92
2022/04/12 09:24:52;;;;;;;4.05;1.70;;;18.40;89.90;;;;;;7341775;19;108337;-92
2022/04/12 09:27:24;;;;;;;2.55;1.45;;;18.50;89.70;;;;;;7339186;19;108288;-94
2022/04/12 09:29:53;;;;;;;5.25;1.50;;;18.60;89.80;;;;;;7339174;19;107973;-92
2022/04/12 09:32:28;;;;;;;4.50;1.33;;;18.70;89.20;;;;;;7336409;19;108185;-94
2022/04/12 09:34:56;;;;;;;4.45;1.40;;;18.90;89.30;;;;;;7338602;19;107828;-92
2022/04/12 09:37:26;;;;;;;4.85;1.50;;;19.10;88.90;;;;;;7338439;19;111026;-96
2022/04/12 09:39:56;;;;;;;5.82;1.67;;;19.20;88.10;;;;;;7340953;19;106987;-95
2022/04/12 09:42:37;;;;;;;6.85;1.48;;;19.30;87.50;;;;;;7339505;19;108839;-91
2022/04/12 09:45:05;;;;;;;2.85;1.45;;;19.40;87.60;;;;;;7339710;19;107847;-93
2022/04/12 09:47:33;;;;;;;6.53;1.48;;;19.50;87.30;;;;;;7349908;19;109250;-94
2022/04/12 09:50:25;;;;;;;4.28;1.70;;;19.60;87.60;;;;;;7342825;19;108755;-93
2022/04/12 09:52:57;;;;;;;3.65;1.40;;;19.70;87.40;;;;;;7341326;19;108522;-94
2022/04/12 09:55:37;;;;;;;5.00;1.23;;;19.70;87.10;;;;;;7340020;19;108072;-94
2022/04/12 09:58:14;;;;;;;4.70;1.50;;;19.70;87.00;;;;;;7340083;19;110900;-93
2022/04/12 10:00:43;;;;;;;5.38;2.00;;;19.90;86.80;;;;;;7339525;19;110111;-91
2022/04/12 10:03:12;;;;;;;4.25;1.63;;;20.00;87.20;;;;;;7338545;19;107803;-90
2022/04/12 10:05:40;;;;;;;3.63;1.42;;;20.00;86.10;;;;;;7338332;19;108239;-91
2022/04/12 10:08:14;;;;;;;3.47;1.40;;;20.20;85.50;;;;;;7339973;19;109483;-94
2022/04/12 10:10:43;;;;;;;3.97;1.50;;;20.40;85.20;;;;;;7337932;19;110185;-94
2022/04/12 10:13:12;;;;;;;8.10;1.50;;;20.50;85.30;;;;;;7334062;19;107677;-94
2022/04/12 10:15:40;;;;;;;4.63;1.58;;;20.50;86.00;;;;;;7337948;19;108726;-95
2022/04/12 10:18:08;;;;;;;6.22;1.58;;;20.60;86.00;;;;;;7337367;19;109755;-95
2022/04/12 10:20:36;;;;;;;5.07;1.67;;;20.70;83.70;;;;;;7346593;19;108404;-90
2022/04/12 10:23:05;;;;;;;5.00;1.50;;;20.80;84.00;;;;;;7346080;19;108999;-92
2022/04/12 10:25:33;;;;;;;3.45;1.42;;;20.80;83.80;;;;;;7347226;19;108025;-94
2022/04/12 10:28:04;;;;;;;4.20;1.20;;;20.80;84.20;;;;;;7345577;19;109395;-94
2022/04/12 10:30:32;;;;;;;5.70;1.70;;;21.00;84.60;;;;;;7349699;19;108272;-88
2022/04/12 10:33:08;;;;;;;4.40;1.55;;;21.10;84.90;;;;;;7336932;19;108395;-88
2022/04/12 10:35:44;;;;;;;4.10;1.40;;;21.10;83.80;;;;;;7341440;19;109350;-88
2022/04/12 10:38:13;;;;;;;3.70;1.60;;;21.20;84.70;;;;;;7338699;19;107693;-87
2022/04/12 10:40:48;;;;;;;4.05;1.75;;;21.30;84.50;;;;;;7341334;19;109752;-87
2022/04/12 10:43:22;;;;;;;4.65;1.60;;;21.30;84.80;;;;;;7340037;19;108161;-89
2022/04/12 10:45:51;;;;;;;4.35;1.70;;;21.30;84.20;;;;;;7341476;19;109091;-86
2022/04/12 10:48:20;;;;;;;10.82;2.00;;;21.30;84.10;;;;;;7342955;19;107624;-88
2022/04/12 10:50:51;;;;;;;5.65;1.73;;;21.30;84.30;;;;;;7337241;19;109204;-86
2022/04/12 10:53:36;;;;;;;2.80;1.60;;;21.50;82.90;;;;;;7343302;19;109297;-87
2022/04/12 10:56:11;;;;;;;4.00;1.60;;;21.50;83.50;;;;;;7339935;19;108754;-87
2022/04/12 10:58:40;;;;;;;4.00;1.65;;;21.60;82.60;;;;;;7333729;19;110142;-88
2022/04/12 11:01:12;;;;;;;5.78;1.85;;;21.60;83.30;;;;;;7338182;19;109753;-88
2022/04/12 11:03:45;;;;;;;4.05;2.22;;;21.90;80.70;;;;;;7339346;19;109948;-87
2022/04/12 11:06:27;;;;;;;6.10;2.22;;;22.20;78.50;;;;;;7337848;19;108258;-88
2022/04/12 11:09:11;;;;;;;3.83;2.08;;;22.00;80.20;;;;;;7335583;19;108340;-89
2022/04/12 11:11:44;;;;;;;5.70;2.33;;;22.30;77.90;;;;;;7338220;19;109315;-87
2022/04/12 11:14:32;;;;;;;7.88;2.15;;;22.40;78.00;;;;;;7331555;19;107889;-87
2022/04/12 11:17:09;;;;;;;4.03;1.75;;;22.00;81.20;;;;;;7339291;19;107926;-87
2022/04/12 11:19:44;;;;;;;8.30;2.10;;;22.00;81.20;;;;;;7333148;19;111189;-87
2022/04/12 11:22:17;;;;;;;5.20;2.00;;;22.00;79.80;;;;;;7339746;19;109229;-90
2022/04/12 11:25:16;;;;;;;11.60;3.30;;;22.00;78.80;;;;;;7340128;19;111713;-90
2022/04/12 11:27:43;;;;;;;7.07;2.05;;;22.10;79.30;;;;;;7336616;19;110675;-89
2022/04/12 11:30:14;;;;;;;5.45;2.08;;;22.00;79.70;;;;;;7339268;19;108141;-89
2022/04/12 11:32:41;;;;;;;5.40;2.20;;;22.30;77.70;;;;;;7338351;19;108463;-90
2022/04/12 11:35:11;;;;;;;3.20;1.70;;;22.60;77.00;;;;;;7339524;19;109607;-92
2022/04/12 11:37:40;;;;;;;3.95;2.00;;;22.60;76.60;;;;;;7344864;19;107459;-91
2022/04/12 11:40:10;;;;;;;6.57;1.75;;;22.80;72.90;;;;;;7353367;19;108832;-91
2022/04/12 11:42:37;;;;;;;13.15;4.13;;;22.50;75.30;;;;;;7345292;19;109158;-91
2022/04/12 11:45:05;;;;;;;13.88;2.20;;;22.40;75.60;;;;;;7346372;19;109193;-92
2022/04/12 11:47:38;;;;;;;10.27;2.17;;;22.70;74.90;;;;;;7345067;19;107458;-91
2022/04/12 11:50:16;;;;;;;6.15;1.83;;;22.50;77.50;;;;;;7346886;19;108467;-92
2022/04/12 11:52:45;;;;;;;5.88;1.52;;;22.50;78.00;;;;;;7345374;19;109086;-91
2022/04/12 11:55:12;;;;;;;4.80;1.50;;;22.50;79.00;;;;;;7346838;19;107010;-92
2022/04/12 11:57:43;;;;;;;5.65;1.80;;;22.60;79.20;;;;;;7348685;19;107268;-92
2022/04/12 12:00:11;;;;;;;3.00;1.42;;;22.80;79.00;;;;;;7345169;19;107925;-92
2022/04/12 12:02:39;;;;;;;3.10;1.27;;;22.90;77.90;;;;;;7349250;19;107755;-92
2022/04/12 12:05:09;;;;;;;4.72;1.55;;;23.00;77.60;;;;;;7338630;19;108153;-91
2022/04/12 12:07:37;;;;;;;7.75;1.50;;;23.10;77.10;;;;;;7340937;19;108099;-92
2022/04/12 12:10:15;;;;;;;5.47;1.45;;;23.20;77.70;;;;;;7341793;19;108216;-93
2022/04/12 12:12:48;;;;;;;11.80;1.90;;;23.20;76.20;;;;;;7341781;19;109127;-93
2022/04/12 12:15:24;;;;;;;6.20;1.50;;;23.20;74.50;;;;;;7341875;19;109901;-94
2022/04/12 12:18:06;;;;;;;4.57;1.60;;;23.20;74.70;;;;;;7340354;19;108790;-93
2022/04/12 12:20:36;;;;;;;4.05;1.55;;;23.20;74.80;;;;;;7343149;19;110755;-92
2022/04/12 12:23:06;;;;;;;3.20;1.63;;;23.30;75.30;;;;;;7345280;19;108093;-92
2022/04/12 12:25:38;;;;;;;4.32;1.42;;;23.30;76.90;;;;;;7339536;19;107023;-91
2022/04/12 12:28:26;;;;;;;9.18;1.30;;;23.50;76.50;;;;;;7340325;19;106934;-91
2022/04/12 12:31:05;;;;;;;7.43;1.17;;;23.70;75.70;;;;;;7344373;19;111433;-90
2022/04/12 12:33:44;;;;;;;5.75;1.40;;;23.80;74.10;;;;;;7339075;19;110374;-91
2022/04/12 12:36:19;;;;;;;5.18;1.20;;;23.80;74.00;;;;;;7340428;19;107937;-89
2022/04/12 12:38:46;;;;;;;8.90;1.30;;;23.70;71.50;;;;;;7338493;19;109586;-92
2022/04/12 12:41:24;;;;;;;3.90;1.17;;;23.70;73.30;;;;;;7340052;19;108453;-92
2022/04/12 12:43:56;;;;;;;5.28;1.20;;;23.80;72.50;;;;;;7341149;19;110503;-89
2022/04/12 12:46:34;;;;;;;2.53;0.98;;;23.80;72.60;;;;;;7346509;19;108769;-90
2022/04/12 12:49:15;;;;;;;4.93;1.20;;;24.00;73.10;;;;;;7344139;19;107945;-91
2022/04/12 12:51:43;;;;;;;4.22;1.10;;;24.10;73.20;;;;;;7346466;19;110727;-92
2022/04/12 12:54:18;;;;;;;4.85;1.08;;;24.20;72.00;;;;;;7345683;19;108996;-92
2022/04/12 12:56:50;;;;;;;3.83;1.35;;;24.30;70.70;;;;;;7342145;19;107252;-92
2022/04/12 12:59:31;;;;;;;5.45;1.00;;;24.30;70.30;;;;;;7342583;19;107691;-92
2022/04/12 13:02:06;;;;;;;3.65;1.48;;;24.30;70.60;;;;;;7343149;19;107876;-88
2022/04/12 13:04:36;;;;;;;4.75;1.20;;;24.30;69.40;;;;;;7338440;19;108137;-92
2022/04/12 13:07:08;;;;;;;2.70;0.98;;;24.30;70.10;;;;;;7343086;19;109991;-92
2022/04/12 13:09:47;;;;;;;2.13;0.85;;;24.40;69.90;;;;;;7343980;19;108928;-91
2022/04/12 13:12:16;;;;;;;7.38;1.10;;;24.60;68.70;;;;;;7340360;19;107678;-91
2022/04/12 13:14:44;;;;;;;3.60;1.10;;;24.60;68.60;;;;;;7339525;19;112103;-92
2022/04/12 13:17:12;;;;;;;6.07;1.30;;;24.70;69.40;;;;;;7338260;19;107761;-92
2022/04/12 13:19:40;;;;;;;4.43;1.15;;;24.80;69.00;;;;;;7336051;19;107489;-91
2022/04/12 13:22:07;;;;;;;3.33;1.00;;;24.90;68.50;;;;;;7339070;19;109059;-92
2022/04/12 13:24:35;;;;;;;5.18;1.20;;;25.00;69.10;;;;;;7339832;19;107248;-92
2022/04/12 13:27:03;;;;;;;5.32;1.10;;;25.00;69.00;;;;;;7337747;19;110084;-90
2022/04/12 13:29:30;;;;;;;3.92;1.20;;;25.10;68.20;;;;;;7338161;19;107882;-90
2022/04/12 13:31:58;;;;;;;4.65;1.20;;;25.00;67.10;;;;;;7341632;19;107291;-91
2022/04/12 13:34:33;;;;;;;9.88;1.40;;;25.00;68.20;;;;;;7338245;19;108127;-89
2022/04/12 13:37:00;;;;;;;4.35;1.08;;;25.10;67.60;;;;;;7337042;19;110926;-91
2022/04/12 13:39:27;;;;;;;3.58;1.15;;;25.10;66.90;;;;;;7335575;19;107810;-91
2022/04/12 13:41:54;;;;;;;7.75;1.13;;;25.20;66.90;;;;;;7337999;19;108414;-89
2022/04/12 13:44:21;;;;;;;6.38;1.20;;;25.30;66.30;;;;;;7334597;19;108355;-91
2022/04/12 13:46:58;;;;;;;5.22;1.25;;;25.40;66.50;;;;;;7339252;19;107966;-93
2022/04/12 13:49:25;;;;;;;4.82;1.23;;;25.30;65.30;;;;;;7334596;19;108179;-90
2022/04/12 13:51:52;;;;;;;4.03;0.98;;;25.20;66.20;;;;;;7338605;19;109239;-89
2022/04/12 13:54:19;;;;;;;5.30;1.10;;;25.10;67.60;;;;;;7351668;19;107409;-91
2022/04/12 13:56:46;;;;;;;3.15;1.20;;;25.10;66.90;;;;;;7346252;19;107350;-91
2022/04/12 13:59:13;;;;;;;3.80;1.30;;;25.10;66.80;;;;;;7348797;19;108141;-92
2022/04/12 14:01:40;;;;;;;5.03;1.20;;;25.10;65.70;;;;;;7348487;19;107894;-91
2022/04/12 14:04:08;;;;;;;4.53;1.00;;;25.20;68.10;;;;;;7347189;19;109450;-91
2022/04/12 14:06:35;;;;;;;3.03;1.00;;;25.30;66.90;;;;;;7345916;19;108365;-90
2022/04/12 14:09:04;;;;;;;3.15;0.95;;;25.30;65.80;;;;;;7348023;19;108587;-90
2022/04/12 14:11:31;;;;;;;3.97;1.10;;;25.00;64.80;;;;;;7346686;19;111340;-90
2022/04/12 14:13:58;;;;;;;2.63;0.93;;;24.80;65.60;;;;;;7344186;19;108038;-90
2022/04/12 14:16:26;;;;;;;7.75;1.30;;;24.90;66.90;;;;;;7352931;19;109042;-91
2022/04/12 14:18:53;;;;;;;3.10;0.80;;;25.00;65.50;;;;;;7346991;19;108425;-91
2022/04/12 14:21:20;;;;;;;5.22;1.00;;;25.00;65.10;;;;;;7340872;19;108528;-89
2022/04/12 14:23:47;;;;;;;4.53;1.10;;;25.00;65.30;;;;;;7347556;19;110723;-89
2022/04/12 14:26:14;;;;;;;4.35;1.20;;;24.90;65.90;;;;;;7348564;19;108345;-90
2022/04/12 14:28:41;;;;;;;4.22;1.20;;;24.90;66.30;;;;;;7346396;19;109216;-89
2022/04/12 14:31:10;;;;;;;6.00;1.23;;;24.80;65.20;;;;;;7341467;19;109932;-90
2022/04/12 14:33:37;;;;;;;4.88;1.27;;;24.90;65.80;;;;;;7342174;19;109984;-90
2022/04/12 14:36:08;;;;;;;2.70;0.95;;;24.90;65.40;;;;;;7347545;19;108755;-88
2022/04/12 14:38:37;;;;;;;6.85;1.38;;;24.90;65.40;;;;;;7342947;19;108120;-90
2022/04/12 14:41:05;;;;;;;8.57;1.15;;;24.90;65.90;;;;;;7339326;19;108586;-89
2022/04/12 14:43:32;;;;;;;4.93;1.00;;;24.80;64.60;;;;;;7343417;19;109088;-90
2022/04/12 14:46:00;;;;;;;5.70;1.00;;;24.90;64.50;;;;;;7342154;19;107662;-90
2022/04/12 14:48:28;;;;;;;6.18;0.90;;;25.00;65.40;;;;;;7343688;19;109414;-91
2022/04/12 14:50:56;;;;;;;3.83;1.05;;;25.10;65.20;;;;;;7343124;19;109634;-92
2022/04/12 14:53:26;;;;;;;4.85;1.15;;;25.00;64.10;;;;;;7344394;19;108563;-91
2022/04/12 14:55:54;;;;;;;2.58;1.00;;;24.90;64.50;;;;;;7346026;19;112792;-89
2022/04/12 14:58:27;;;;;;;8.43;1.23;;;25.00;65.10;;;;;;7351096;19;107706;-90
2022/04/12 15:00:54;;;;;;;5.13;0.95;;;25.10;66.30;;;;;;7345015;19;109724;-92
2022/04/12 15:03:22;;;;;;;3.22;0.82;;;25.30;66.20;;;;;;7348104;19;108046;-94
2022/04/12 15:05:49;;;;;;;8.88;1.60;;;25.30;66.40;;;;;;7345626;19;108266;-92
2022/04/12 15:08:16;;;;;;;4.93;1.08;;;25.30;65.90;;;;;;7348120;19;108975;-91
2022/04/12 15:10:43;;;;;;;3.72;1.08;;;25.40;65.60;;;;;;7347519;19;107218;-90
2022/04/12 15:13:10;;;;;;;4.78;0.98;;;25.40;65.00;;;;;;7347464;19;108324;-92
2022/04/12 15:15:42;;;;;;;7.80;1.38;;;25.30;64.50;;;;;;7340792;19;108113;-90
2022/04/12 15:18:09;;;;;;;3.10;1.10;;;25.30;64.30;;;;;;7340886;19;107262;-91
2022/04/12 15:20:36;;;;;;;5.50;1.13;;;25.40;64.40;;;;;;7345933;19;108154;-89
2022/04/12 15:23:04;;;;;;;4.10;0.95;;;25.50;64.00;;;;;;7344075;19;107456;-91
2022/04/12 15:25:32;;;;;;;8.38;1.20;;;25.50;63.70;;;;;;7347519;19;106982;-90
2022/04/12 15:27:59;;;;;;;5.90;1.10;;;25.40;65.30;;;;;;7346362;19;109416;-91
2022/04/12 15:30:26;;;;;;;5.00;1.00;;;25.30;65.00;;;;;;7344892;19;107907;-91
2022/04/12 15:32:53;;;;;;;5.57;1.25;;;25.40;65.90;;;;;;7343127;19;109961;-92